createdAt,value
2023-08-31T00:00:08.084Z,1007.26
2023-08-31T00:01:08.256Z,1007.24
2023-08-31T00:02:08.453Z,1007.28
2023-08-31T00:03:08.714Z,1007.20
2023-08-31T00:04:08.838Z,1007.19
2023-08-31T00:05:08.977Z,1007.18
2023-08-31T00:06:09.210Z,1007.14
2023-08-31T00:07:09.335Z,1007.11
2023-08-31T00:08:09.566Z,1007.14
2023-08-31T00:09:09.698Z,1007.13
2023-08-31T00:10:09.896Z,1007.17
2023-08-31T00:11:10.052Z,1007.19
2023-08-31T00:12:10.278Z,1007.23
2023-08-31T00:13:10.736Z,1007.31
2023-08-31T00:14:10.699Z,1007.33
2023-08-31T00:15:10.839Z,1007.36
2023-08-31T00:16:11.084Z,1007.35
2023-08-31T00:17:11.216Z,1007.39
2023-08-31T00:18:11.398Z,1007.39
2023-08-31T00:19:11.585Z,1007.41
2023-08-31T00:20:11.740Z,1007.40
2023-08-31T00:21:11.958Z,1007.47
2023-08-31T00:22:12.145Z,1007.46
2023-08-31T00:23:12.718Z,1007.48
2023-08-31T00:24:12.494Z,1007.44
2023-08-31T00:25:12.699Z,1007.44
2023-08-31T00:26:12.879Z,1007.45
2023-08-31T00:27:13.083Z,1007.46
2023-08-31T00:28:13.206Z,1007.42
2023-08-31T00:29:13.402Z,1007.46
2023-08-31T00:30:13.579Z,1007.45
2023-08-31T00:31:13.807Z,1007.46
2023-08-31T00:32:13.986Z,1007.44
2023-08-31T00:33:14.524Z,1007.49
2023-08-31T00:34:14.301Z,1007.46
2023-08-31T00:35:14.466Z,1007.48
2023-08-31T00:36:14.666Z,1007.41
2023-08-31T00:37:14.888Z,1007.47
2023-08-31T00:38:15.269Z,1007.47
2023-08-31T00:39:15.210Z,1007.49
2023-08-31T00:40:15.476Z,1007.49
2023-08-31T00:41:15.609Z,1007.47
2023-08-31T00:42:15.813Z,1007.47
2023-08-31T00:43:16.003Z,1007.52
2023-08-31T00:44:17.483Z,1007.48
2023-08-31T00:45:16.372Z,1007.53
2023-08-31T00:46:16.544Z,1007.58
2023-08-31T00:47:16.759Z,1007.53
2023-08-31T00:48:16.889Z,1007.57
2023-08-31T00:49:17.147Z,1007.59
2023-08-31T00:50:17.305Z,1007.61
2023-08-31T00:51:17.485Z,1007.65
2023-08-31T00:52:17.691Z,1007.65
2023-08-31T00:53:17.845Z,1007.62
2023-08-31T00:54:18.014Z,1007.65
2023-08-31T00:55:18.234Z,1007.64
2023-08-31T00:56:18.410Z,1007.64
2023-08-31T00:57:18.613Z,1007.63
2023-08-31T00:58:18.779Z,1007.65
2023-08-31T00:59:18.995Z,1007.70
2023-08-31T01:00:19.177Z,1007.72
2023-08-31T01:01:19.382Z,1007.72
2023-08-31T01:02:19.582Z,1007.69
2023-08-31T01:03:19.816Z,1007.70
2023-08-31T01:04:20.042Z,1007.76
2023-08-31T01:05:20.046Z,1007.76
2023-08-31T01:06:20.275Z,1007.81
2023-08-31T01:07:20.446Z,1007.73
2023-08-31T01:08:20.614Z,1007.76
2023-08-31T01:09:20.789Z,1007.78
2023-08-31T01:10:20.965Z,1007.77
2023-08-31T01:11:21.157Z,1007.77
2023-08-31T01:12:21.380Z,1007.78
2023-08-31T01:13:21.543Z,1007.75
2023-08-31T01:14:21.689Z,1007.79
2023-08-31T01:15:21.914Z,1007.83
2023-08-31T01:16:22.106Z,1007.81
2023-08-31T01:17:22.298Z,1007.78
2023-08-31T01:18:22.420Z,1007.83
2023-08-31T01:19:22.639Z,1007.82
2023-08-31T01:20:22.870Z,1007.86
2023-08-31T01:21:23.012Z,1007.87
2023-08-31T01:22:23.209Z,1007.87
2023-08-31T01:23:23.376Z,1007.90
2023-08-31T01:24:23.546Z,1007.88
2023-08-31T01:25:23.733Z,1007.86
2023-08-31T01:26:23.876Z,1007.81
2023-08-31T01:27:24.081Z,1007.80
2023-08-31T01:28:24.238Z,1007.76
2023-08-31T01:29:24.456Z,1007.76
2023-08-31T01:30:24.617Z,1007.72
2023-08-31T01:31:24.828Z,1007.69
2023-08-31T01:32:24.966Z,1007.72
2023-08-31T01:33:25.191Z,1007.71
2023-08-31T01:34:25.325Z,1007.70
2023-08-31T01:35:25.517Z,1007.74
2023-08-31T01:36:25.714Z,1007.76
2023-08-31T01:37:25.884Z,1007.80
2023-08-31T01:38:26.146Z,1007.82
2023-08-31T01:39:26.251Z,1007.85
2023-08-31T01:40:26.452Z,1007.89
2023-08-31T01:41:26.647Z,1007.95
2023-08-31T01:42:26.787Z,1008.02
2023-08-31T01:43:26.994Z,1008.08
2023-08-31T01:44:27.225Z,1008.11
2023-08-31T01:45:27.411Z,1008.15
2023-08-31T01:46:27.559Z,1008.17
2023-08-31T01:47:27.765Z,1008.16
2023-08-31T01:48:27.932Z,1008.18
2023-08-31T01:49:28.112Z,1008.20
2023-08-31T01:50:28.384Z,1008.15
2023-08-31T01:51:28.445Z,1008.20
2023-08-31T01:52:28.606Z,1008.21
2023-08-31T01:53:28.791Z,1008.23
2023-08-31T01:54:29.016Z,1008.21
2023-08-31T01:55:29.182Z,1008.23
2023-08-31T01:56:29.353Z,1008.22
2023-08-31T01:57:29.536Z,1008.22
2023-08-31T01:58:29.713Z,1008.24
2023-08-31T01:59:29.894Z,1008.22
2023-08-31T02:00:30.148Z,1008.21
2023-08-31T02:01:30.403Z,1008.19
2023-08-31T02:02:30.520Z,1008.23
2023-08-31T02:03:30.643Z,1008.20
2023-08-31T02:04:30.823Z,1008.22
2023-08-31T02:05:30.998Z,1008.15
2023-08-31T02:06:31.146Z,1008.14
2023-08-31T02:07:31.346Z,1008.14
2023-08-31T02:08:31.549Z,1008.07
2023-08-31T02:09:31.712Z,1008.03
2023-08-31T02:10:32.053Z,1008.02
2023-08-31T02:11:32.110Z,1008.00
2023-08-31T02:12:32.289Z,1008.02
2023-08-31T02:13:32.495Z,1008.01
2023-08-31T02:14:32.624Z,1008.05
2023-08-31T02:15:32.903Z,1008.05
2023-08-31T02:16:33.007Z,1008.12
2023-08-31T02:17:33.258Z,1008.12
2023-08-31T02:18:33.385Z,1008.14
2023-08-31T02:19:33.605Z,1008.16
2023-08-31T02:20:33.783Z,1008.15
2023-08-31T02:21:33.951Z,1008.18
2023-08-31T02:22:34.115Z,1008.22
2023-08-31T02:23:34.344Z,1008.22
2023-08-31T02:24:34.478Z,1008.21
2023-08-31T02:25:34.722Z,1008.20
2023-08-31T02:26:34.810Z,1008.18
2023-08-31T02:27:35.054Z,1008.19
2023-08-31T02:28:35.243Z,1008.16
2023-08-31T02:29:35.334Z,1008.16
2023-08-31T02:30:35.564Z,1008.17
2023-08-31T02:31:35.759Z,1008.23
2023-08-31T02:32:36.064Z,1008.21
2023-08-31T02:33:36.115Z,1008.25
2023-08-31T02:34:36.322Z,1008.28
2023-08-31T02:35:36.525Z,1008.30
2023-08-31T02:36:36.693Z,1008.28
2023-08-31T02:37:36.855Z,1008.32
2023-08-31T02:38:37.029Z,1008.28
2023-08-31T02:39:37.212Z,1008.27
2023-08-31T02:40:37.410Z,1008.25
2023-08-31T02:41:37.630Z,1008.25
2023-08-31T02:42:37.757Z,1008.26
2023-08-31T02:43:37.959Z,1008.25
2023-08-31T02:44:38.149Z,1008.27
2023-08-31T02:45:38.320Z,1008.30
2023-08-31T02:46:38.592Z,1008.26
2023-08-31T02:47:38.764Z,1008.24
2023-08-31T02:48:38.885Z,1008.29
2023-08-31T02:49:39.026Z,1008.31
2023-08-31T02:50:39.250Z,1008.33
2023-08-31T02:51:39.397Z,1008.29
2023-08-31T02:52:39.574Z,1008.26
2023-08-31T02:53:39.735Z,1008.23
2023-08-31T02:54:39.950Z,1008.24
2023-08-31T02:55:40.123Z,1008.24
2023-08-31T02:56:40.324Z,1008.34
2023-08-31T02:57:40.470Z,1008.33
2023-08-31T02:58:40.977Z,1008.35
2023-08-31T02:59:40.872Z,1008.32
2023-08-31T03:00:41.108Z,1008.33
2023-08-31T03:01:41.289Z,1008.35
2023-08-31T03:02:41.501Z,1008.35
2023-08-31T03:03:41.626Z,1008.40
2023-08-31T03:04:41.811Z,1008.41
2023-08-31T03:05:42.019Z,1008.39
2023-08-31T03:06:42.191Z,1008.40
2023-08-31T03:07:42.370Z,1008.44
2023-08-31T03:08:42.548Z,1008.47
2023-08-31T03:09:42.768Z,1008.50
2023-08-31T03:10:42.983Z,1008.49
2023-08-31T03:11:43.095Z,1008.50
2023-08-31T03:12:43.320Z,1008.49
2023-08-31T03:13:43.523Z,1008.53
2023-08-31T03:14:43.671Z,1008.51
2023-08-31T03:15:43.889Z,1008.56
2023-08-31T03:16:44.115Z,1008.52
2023-08-31T03:17:44.274Z,1008.49
2023-08-31T03:18:44.452Z,1008.48
2023-08-31T03:19:44.601Z,1008.50
2023-08-31T03:20:44.826Z,1008.48
2023-08-31T03:21:44.995Z,1008.49
2023-08-31T03:22:45.158Z,1008.51
2023-08-31T03:23:45.371Z,1008.53
2023-08-31T03:24:45.586Z,1008.55
2023-08-31T03:25:45.857Z,1008.59
2023-08-31T03:26:45.917Z,1008.58
2023-08-31T03:27:46.134Z,1008.64
2023-08-31T03:28:46.293Z,1008.64
2023-08-31T03:29:46.516Z,1008.63
2023-08-31T03:30:46.749Z,1008.61
2023-08-31T03:31:46.857Z,1008.63
2023-08-31T03:34:02.226Z,1008.61
2023-08-31T03:35:02.381Z,1008.63
2023-08-31T03:36:02.553Z,1008.65
2023-08-31T03:37:02.735Z,1008.61
2023-08-31T03:38:02.901Z,1008.65
2023-08-31T03:39:03.110Z,1008.67
2023-08-31T03:40:03.312Z,1008.65
2023-08-31T03:41:03.485Z,1008.69
2023-08-31T03:42:03.674Z,1008.70
2023-08-31T03:43:03.825Z,1008.71
2023-08-31T03:44:04.042Z,1008.74
2023-08-31T03:45:04.224Z,1008.70
2023-08-31T03:46:04.470Z,1008.75
2023-08-31T03:47:04.592Z,1008.73
2023-08-31T03:48:04.794Z,1008.76
2023-08-31T03:49:04.966Z,1008.72
2023-08-31T03:50:05.173Z,1008.75
2023-08-31T03:51:05.335Z,1008.74
2023-08-31T03:52:05.600Z,1008.74
2023-08-31T03:53:05.739Z,1008.76
2023-08-31T03:54:05.959Z,1008.80
2023-08-31T03:55:06.134Z,1008.78
2023-08-31T03:56:06.311Z,1008.74
2023-08-31T03:57:06.484Z,1008.78
2023-08-31T03:58:06.691Z,1008.77
2023-08-31T03:59:06.864Z,1008.75
2023-08-31T04:00:07.037Z,1008.77
2023-08-31T04:01:07.312Z,1008.77
2023-08-31T04:02:07.506Z,1008.78
2023-08-31T04:03:07.803Z,1008.77
2023-08-31T04:04:07.898Z,1008.79
2023-08-31T04:05:07.990Z,1008.80
2023-08-31T04:06:08.140Z,1008.83
2023-08-31T04:07:08.336Z,1008.81
2023-08-31T04:08:08.567Z,1008.84
2023-08-31T04:09:08.729Z,1008.87
2023-08-31T04:10:08.909Z,1008.82
2023-08-31T04:11:09.056Z,1008.85
2023-08-31T04:12:09.256Z,1008.82
2023-08-31T04:13:09.512Z,1008.80
2023-08-31T04:14:09.609Z,1008.90
2023-08-31T04:15:09.811Z,1008.89
2023-08-31T04:17:10.340Z,1008.91
2023-08-31T04:18:10.486Z,1008.90
2023-08-31T04:19:11.171Z,1008.86
2023-08-31T04:20:10.767Z,1008.82
2023-08-31T04:21:10.966Z,1008.88
2023-08-31T04:22:11.140Z,1008.89
2023-08-31T04:23:11.594Z,1008.86
2023-08-31T04:24:11.563Z,1008.89
2023-08-31T04:25:11.715Z,1008.94
2023-08-31T04:26:11.952Z,1008.90
2023-08-31T04:27:12.105Z,1008.90
2023-08-31T04:28:12.248Z,1008.93
2023-08-31T04:29:12.465Z,1008.89
2023-08-31T04:30:12.632Z,1008.93
2023-08-31T04:31:12.860Z,1008.91
2023-08-31T04:32:12.987Z,1008.94
2023-08-31T04:33:13.461Z,1008.91
2023-08-31T04:34:13.388Z,1008.91
2023-08-31T04:35:13.476Z,1008.90
2023-08-31T04:36:14.226Z,1008.93
2023-08-31T04:37:13.884Z,1008.91
2023-08-31T04:38:14.057Z,1008.95
2023-08-31T04:39:14.271Z,1008.96
2023-08-31T04:40:14.429Z,1008.97
2023-08-31T04:41:14.606Z,1008.95
2023-08-31T04:42:14.817Z,1009.02
2023-08-31T04:43:15.008Z,1009.00
2023-08-31T04:44:15.199Z,1008.99
2023-08-31T04:45:15.342Z,1009.01
2023-08-31T04:46:15.583Z,1009.05
2023-08-31T04:47:15.691Z,1009.06
2023-08-31T04:48:15.880Z,1009.08
2023-08-31T04:49:16.074Z,1009.07
2023-08-31T04:50:16.300Z,1009.04
2023-08-31T04:51:16.445Z,1009.02
2023-08-31T04:52:16.713Z,1009.02
2023-08-31T04:53:16.825Z,1009.03
2023-08-31T04:54:16.968Z,1009.04
2023-08-31T04:55:17.185Z,1009.02
2023-08-31T04:56:17.359Z,1009.02
2023-08-31T04:57:17.546Z,1009.06
2023-08-31T04:58:17.694Z,1009.07
2023-08-31T04:59:17.885Z,1009.10
2023-08-31T05:00:18.056Z,1009.07
2023-08-31T05:01:18.264Z,1009.11
2023-08-31T05:02:18.393Z,1009.08
2023-08-31T05:03:18.553Z,1009.12
2023-08-31T05:04:18.835Z,1009.11
2023-08-31T05:05:18.945Z,1009.12
2023-08-31T05:06:19.098Z,1009.14
2023-08-31T05:07:19.301Z,1009.17
2023-08-31T05:08:19.514Z,1009.18
2023-08-31T05:09:19.693Z,1009.18
2023-08-31T05:10:19.846Z,1009.19
2023-08-31T05:11:20.023Z,1009.18
2023-08-31T05:12:20.226Z,1009.21
2023-08-31T05:13:20.410Z,1009.18
2023-08-31T05:14:20.617Z,1009.22
2023-08-31T05:15:20.753Z,1009.16
2023-08-31T05:16:20.929Z,1009.20
2023-08-31T05:17:21.182Z,1009.27
2023-08-31T05:18:21.286Z,1009.27
2023-08-31T05:19:21.532Z,1009.26
2023-08-31T05:20:21.670Z,1009.28
2023-08-31T05:21:21.876Z,1009.30
2023-08-31T05:22:22.043Z,1009.33
2023-08-31T05:23:22.164Z,1009.34
2023-08-31T05:24:22.380Z,1009.40
2023-08-31T05:25:22.546Z,1009.39
2023-08-31T05:26:22.727Z,1009.40
2023-08-31T05:27:22.907Z,1009.40
2023-08-31T05:28:23.064Z,1009.40
2023-08-31T05:29:23.238Z,1009.41
2023-08-31T05:30:23.451Z,1009.41
2023-08-31T05:31:23.604Z,1009.51
2023-08-31T05:32:23.838Z,1009.46
2023-08-31T05:33:23.991Z,1009.45
2023-08-31T05:34:24.213Z,1009.47
2023-08-31T05:35:24.350Z,1009.51
2023-08-31T05:36:24.518Z,1009.49
2023-08-31T05:37:24.741Z,1009.55
2023-08-31T05:38:24.867Z,1009.52
2023-08-31T05:39:25.034Z,1009.54
2023-08-31T05:40:25.255Z,1009.58
2023-08-31T05:41:25.447Z,1009.55
2023-08-31T05:42:25.642Z,1009.58
2023-08-31T05:43:25.835Z,1009.58
2023-08-31T05:44:25.995Z,1009.61
2023-08-31T05:45:26.157Z,1009.59
2023-08-31T05:46:26.382Z,1009.66
2023-08-31T05:47:26.587Z,1009.63
2023-08-31T05:48:26.723Z,1009.63
2023-08-31T05:49:26.885Z,1009.66
2023-08-31T05:50:27.137Z,1009.66
2023-08-31T05:51:27.264Z,1009.63
2023-08-31T05:52:27.466Z,1009.70
2023-08-31T05:53:27.629Z,1009.71
2023-08-31T05:54:27.785Z,1009.72
2023-08-31T05:55:28.029Z,1009.71
2023-08-31T05:56:28.177Z,1009.74
2023-08-31T05:57:28.305Z,1009.75
2023-08-31T05:58:28.583Z,1009.72
2023-08-31T05:59:28.701Z,1009.74
2023-08-31T06:00:28.977Z,1009.72
2023-08-31T06:01:29.182Z,1009.71
2023-08-31T06:02:29.406Z,1009.73
2023-08-31T06:03:29.444Z,1009.76
2023-08-31T06:04:29.684Z,1009.83
2023-08-31T06:05:29.798Z,1009.84
2023-08-31T06:06:29.989Z,1009.87
2023-08-31T06:07:30.226Z,1009.86
2023-08-31T06:08:30.400Z,1009.84
2023-08-31T06:09:30.537Z,1009.90
2023-08-31T06:10:30.725Z,1009.93
2023-08-31T06:11:30.909Z,1009.94
2023-08-31T06:12:31.090Z,1009.93
2023-08-31T06:13:31.300Z,1009.87
2023-08-31T06:14:31.453Z,1009.90
2023-08-31T06:15:31.611Z,1009.91
2023-08-31T06:16:31.865Z,1009.95
2023-08-31T06:17:32.029Z,1009.91
2023-08-31T06:18:32.217Z,1009.97
2023-08-31T06:19:32.373Z,1009.92
2023-08-31T06:20:32.528Z,1009.91
2023-08-31T06:21:32.707Z,1009.93
2023-08-31T06:22:32.921Z,1009.90
2023-08-31T06:23:33.120Z,1009.96
2023-08-31T06:24:33.267Z,1009.99
2023-08-31T06:25:33.452Z,1009.94
2023-08-31T06:26:33.634Z,1009.97
2023-08-31T06:27:33.831Z,1009.97
2023-08-31T06:28:34.068Z,1010.02
2023-08-31T06:29:34.224Z,1009.98
2023-08-31T06:30:34.384Z,1009.97
2023-08-31T06:31:34.659Z,1010.00
2023-08-31T06:32:34.764Z,1010.00
2023-08-31T06:33:34.932Z,1009.99
2023-08-31T06:34:35.132Z,1010.00
2023-08-31T06:35:35.322Z,1010.03
2023-08-31T06:36:35.473Z,1010.04
2023-08-31T06:37:35.714Z,1010.09
2023-08-31T06:38:35.855Z,1010.08
2023-08-31T06:39:36.028Z,1010.10
2023-08-31T06:40:36.284Z,1010.12
2023-08-31T06:41:36.378Z,1010.12
2023-08-31T06:42:36.588Z,1010.05
2023-08-31T06:43:36.777Z,1010.08
2023-08-31T06:44:36.908Z,1010.09
2023-08-31T06:45:37.107Z,1010.08
2023-08-31T06:46:37.314Z,1010.09
2023-08-31T06:47:37.456Z,1010.18
2023-08-31T06:48:37.706Z,1010.16
2023-08-31T06:49:37.821Z,1010.16
2023-08-31T06:50:38.032Z,1010.18
2023-08-31T06:51:38.214Z,1010.19
2023-08-31T06:52:38.352Z,1010.24
2023-08-31T06:53:39.496Z,1010.21
2023-08-31T06:54:38.713Z,1010.21
2023-08-31T06:55:38.922Z,1010.21
2023-08-31T06:56:39.094Z,1010.18
2023-08-31T06:57:39.295Z,1010.25
2023-08-31T06:58:39.469Z,1010.23
2023-08-31T06:59:39.638Z,1010.24
2023-08-31T07:00:39.844Z,1010.24
2023-08-31T07:01:40.057Z,1010.25
2023-08-31T07:02:40.289Z,1010.29
2023-08-31T07:03:40.518Z,1010.26
2023-08-31T07:04:40.583Z,1010.32
2023-08-31T07:05:40.731Z,1010.32
2023-08-31T07:06:40.960Z,1010.31
2023-08-31T07:07:41.099Z,1010.34
2023-08-31T07:08:41.313Z,1010.32
2023-08-31T07:09:41.500Z,1010.31
2023-08-31T07:10:41.725Z,1010.29
2023-08-31T07:11:41.902Z,1010.29
2023-08-31T07:12:42.031Z,1010.29
2023-08-31T07:13:42.227Z,1010.31
2023-08-31T07:14:42.408Z,1010.33
2023-08-31T07:15:42.641Z,1010.34
2023-08-31T07:16:42.785Z,1010.32
2023-08-31T07:17:42.968Z,1010.39
2023-08-31T07:18:43.174Z,1010.35
2023-08-31T07:19:43.355Z,1010.43
2023-08-31T07:20:43.585Z,1010.36
2023-08-31T07:21:43.798Z,1010.33
2023-08-31T07:22:43.894Z,1010.34
2023-08-31T07:23:44.102Z,1010.38
2023-08-31T07:24:44.317Z,1010.39
2023-08-31T07:25:44.450Z,1010.38
2023-08-31T07:26:44.684Z,1010.36
2023-08-31T07:27:44.818Z,1010.34
2023-08-31T07:28:45.024Z,1010.44
2023-08-31T07:29:45.186Z,1010.49
2023-08-31T07:30:45.351Z,1010.49
2023-08-31T07:31:45.617Z,1010.47
2023-08-31T07:32:45.769Z,1010.49
2023-08-31T07:33:45.981Z,1010.48
2023-08-31T07:34:46.127Z,1010.51
2023-08-31T07:35:46.320Z,1010.51
2023-08-31T07:36:46.538Z,1010.49
2023-08-31T07:37:46.684Z,1010.55
2023-08-31T07:38:46.844Z,1010.51
2023-08-31T07:39:47.078Z,1010.63
2023-08-31T07:40:47.240Z,1010.60
2023-08-31T07:41:47.432Z,1010.59
2023-08-31T07:42:47.601Z,1010.59
2023-08-31T07:44:03.661Z,1010.64
2023-08-31T07:44:48.987Z,1010.61
2023-08-31T07:45:48.127Z,1010.60
2023-08-31T07:46:48.382Z,1010.64
2023-08-31T07:47:48.543Z,1010.62
2023-08-31T07:48:48.691Z,1010.56
2023-08-31T07:49:48.935Z,1010.59
2023-08-31T07:50:49.120Z,1010.61
2023-08-31T07:51:49.248Z,1010.68
2023-08-31T07:52:49.463Z,1010.61
2023-08-31T07:53:49.651Z,1010.68
2023-08-31T07:54:49.819Z,1010.68
2023-08-31T07:55:49.981Z,1010.70
2023-08-31T07:56:50.252Z,1010.74
2023-08-31T07:57:50.380Z,1010.72
2023-08-31T07:58:50.536Z,1010.70
2023-08-31T07:59:50.706Z,1010.76
2023-08-31T08:00:50.962Z,1010.73
2023-08-31T08:01:51.224Z,1010.78
2023-08-31T08:02:51.369Z,1010.79
2023-08-31T08:03:51.566Z,1010.74
2023-08-31T08:04:51.630Z,1010.73
2023-08-31T08:05:51.876Z,1010.74
2023-08-31T08:06:52.019Z,1010.75
2023-08-31T08:07:52.168Z,1010.78
2023-08-31T08:08:52.378Z,1010.80
2023-08-31T08:09:52.556Z,1010.78
2023-08-31T08:10:52.765Z,1010.79
2023-08-31T08:11:52.963Z,1010.83
2023-08-31T08:12:53.122Z,1010.78
2023-08-31T08:13:53.297Z,1010.81
2023-08-31T08:14:53.511Z,1010.79
2023-08-31T08:15:53.690Z,1010.76
2023-08-31T08:16:53.908Z,1010.82
2023-08-31T08:17:54.141Z,1010.82
2023-08-31T08:18:54.650Z,1010.88
2023-08-31T08:19:54.394Z,1010.84
2023-08-31T08:20:54.637Z,1010.85
2023-08-31T08:21:54.853Z,1010.86
2023-08-31T08:22:55.073Z,1010.86
2023-08-31T08:23:55.209Z,1010.81
2023-08-31T08:24:55.360Z,1010.79
2023-08-31T08:25:55.556Z,1010.78
2023-08-31T08:26:55.722Z,1010.76
2023-08-31T08:27:55.906Z,1010.77
2023-08-31T08:28:56.071Z,1010.70
2023-08-31T08:29:56.270Z,1010.72
2023-08-31T08:30:56.522Z,1010.72
2023-08-31T08:31:56.653Z,1010.73
2023-08-31T08:32:56.877Z,1010.72
2023-08-31T08:33:57.021Z,1010.78
2023-08-31T08:34:57.194Z,1010.73
2023-08-31T08:35:57.396Z,1010.75
2023-08-31T08:36:57.585Z,1010.68
2023-08-31T08:37:57.755Z,1010.66
2023-08-31T08:38:57.937Z,1010.69
2023-08-31T08:39:58.121Z,1010.63
2023-08-31T08:40:58.349Z,1010.69
2023-08-31T08:41:58.474Z,1010.70
2023-08-31T08:42:58.654Z,1010.72
2023-08-31T08:43:58.861Z,1010.73
2023-08-31T08:44:59.023Z,1010.71
2023-08-31T08:45:59.203Z,1010.80
2023-08-31T08:46:59.415Z,1010.79
2023-08-31T08:47:59.620Z,1010.79
2023-08-31T08:48:59.734Z,1010.75
2023-08-31T08:49:59.915Z,1010.70
2023-08-31T08:51:00.135Z,1010.68
2023-08-31T08:52:00.404Z,1010.70
2023-08-31T08:53:00.487Z,1010.64
2023-08-31T08:54:00.674Z,1010.66
2023-08-31T08:55:00.856Z,1010.70
2023-08-31T08:56:01.035Z,1010.72
2023-08-31T08:57:01.235Z,1010.71
2023-08-31T08:58:01.447Z,1010.75
2023-08-31T08:59:01.551Z,1010.78
2023-08-31T09:00:01.778Z,1010.79
2023-08-31T09:01:01.939Z,1010.79
2023-08-31T09:02:02.231Z,1010.75
2023-08-31T09:03:02.333Z,1010.76
2023-08-31T09:04:02.486Z,1010.74
2023-08-31T09:05:02.741Z,1010.71
2023-08-31T09:06:03.497Z,1010.70
2023-08-31T09:07:02.996Z,1010.81
2023-08-31T09:08:03.199Z,1010.79
2023-08-31T09:09:03.353Z,1010.83
2023-08-31T09:10:03.572Z,1010.84
2023-08-31T09:11:03.835Z,1010.79
2023-08-31T09:12:03.945Z,1010.86
2023-08-31T09:13:04.083Z,1010.87
2023-08-31T09:14:04.314Z,1010.84
2023-08-31T09:15:04.463Z,1010.79
2023-08-31T09:16:04.715Z,1010.81
2023-08-31T09:17:05.017Z,1010.83
2023-08-31T09:18:05.039Z,1010.83
2023-08-31T09:19:05.185Z,1010.86
2023-08-31T09:20:05.408Z,1010.89
2023-08-31T09:21:05.574Z,1010.89
2023-08-31T09:22:05.749Z,1010.83
2023-08-31T09:23:05.932Z,1010.83
2023-08-31T09:24:06.057Z,1010.82
2023-08-31T09:25:06.347Z,1010.81
2023-08-31T09:26:06.441Z,1010.88
2023-08-31T09:27:06.627Z,1010.85
2023-08-31T09:28:06.839Z,1010.86
2023-08-31T09:29:07.015Z,1010.84
2023-08-31T09:30:07.199Z,1010.86
2023-08-31T09:31:07.422Z,1010.86
2023-08-31T09:32:07.577Z,1010.80
2023-08-31T09:33:07.769Z,1010.82
2023-08-31T09:35:23.669Z,1010.83
2023-08-31T09:36:23.186Z,1010.73
2023-08-31T09:37:23.369Z,1010.69
2023-08-31T09:38:23.579Z,1010.62
2023-08-31T09:39:23.766Z,1010.70
2023-08-31T09:40:24.201Z,1010.67
2023-08-31T09:41:24.132Z,1010.62
2023-08-31T09:42:24.324Z,1010.61
2023-08-31T09:43:24.496Z,1010.66
2023-08-31T09:44:24.658Z,1010.61
2023-08-31T09:45:35.908Z,1010.59
2023-08-31T09:46:26.115Z,1010.64
2023-08-31T09:47:26.613Z,1010.63
2023-08-31T09:48:25.478Z,1010.58
2023-08-31T09:49:25.574Z,1010.58
2023-08-31T09:50:25.792Z,1010.58
2023-08-31T09:51:25.991Z,1010.59
2023-08-31T09:52:26.127Z,1010.60
2023-08-31T09:53:28.570Z,1010.64
2023-08-31T09:54:26.483Z,1010.63
2023-08-31T09:55:26.650Z,1010.62
2023-08-31T09:56:26.872Z,1010.59
2023-08-31T09:57:43.752Z,1010.63
2023-08-31T09:58:28.215Z,1010.58
2023-08-31T09:59:28.895Z,1010.58
2023-08-31T10:00:27.625Z,1010.60
2023-08-31T10:01:30.076Z,1010.64
2023-08-31T10:02:28.006Z,1010.68
2023-08-31T10:03:28.215Z,1010.68
2023-08-31T10:04:28.340Z,1010.69
2023-08-31T10:05:28.793Z,1010.71
2023-08-31T10:06:28.714Z,1010.68
2023-08-31T10:07:28.887Z,1010.76
2023-08-31T10:08:29.047Z,1010.68
2023-08-31T10:09:29.215Z,1010.70
2023-08-31T10:10:29.439Z,1010.65
2023-08-31T10:11:29.630Z,1010.69
2023-08-31T10:12:29.821Z,1010.63
2023-08-31T10:13:30.012Z,1010.71
2023-08-31T10:14:30.222Z,1010.78
2023-08-31T10:15:30.551Z,1010.78
2023-08-31T10:16:30.656Z,1010.80
2023-08-31T10:17:30.818Z,1010.94
2023-08-31T10:18:31.077Z,1010.94
2023-08-31T10:19:31.151Z,1010.94
2023-08-31T10:20:31.364Z,1010.95
2023-08-31T10:21:31.539Z,1010.97
2023-08-31T10:22:31.661Z,1010.97
2023-08-31T10:23:31.884Z,1011.01
2023-08-31T10:24:32.050Z,1011.05
2023-08-31T10:25:32.252Z,1011.02
2023-08-31T10:26:32.429Z,1010.98
2023-08-31T10:27:32.633Z,1010.96
2023-08-31T10:28:32.795Z,1010.92
2023-08-31T10:29:32.992Z,1010.93
2023-08-31T10:30:33.160Z,1010.88
2023-08-31T10:31:33.423Z,1010.86
2023-08-31T10:32:33.602Z,1010.86
2023-08-31T10:33:33.774Z,1010.84
2023-08-31T10:34:33.900Z,1010.85
2023-08-31T10:35:34.064Z,1010.84
2023-08-31T10:36:34.284Z,1010.84
2023-08-31T10:37:34.415Z,1010.84
2023-08-31T10:38:34.602Z,1010.80
2023-08-31T10:39:34.821Z,1010.81
2023-08-31T10:40:34.996Z,1010.77
2023-08-31T10:41:36.764Z,1010.77
2023-08-31T10:42:35.384Z,1010.74
2023-08-31T10:43:46.611Z,1010.76
2023-08-31T10:44:36.757Z,1010.73
2023-08-31T10:45:35.925Z,1010.79
2023-08-31T10:46:36.160Z,1010.76
2023-08-31T10:47:36.872Z,1010.75
2023-08-31T10:48:36.551Z,1010.72
2023-08-31T10:49:36.706Z,1010.67
2023-08-31T10:50:36.876Z,1010.70
2023-08-31T10:51:37.088Z,1010.69
2023-08-31T10:52:42.437Z,1010.68
2023-08-31T10:53:39.290Z,1010.65
2023-08-31T10:54:37.650Z,1010.65
2023-08-31T10:55:37.876Z,1010.69
2023-08-31T10:56:38.048Z,1010.70
2023-08-31T10:57:38.233Z,1010.67
2023-08-31T10:58:38.397Z,1010.60
2023-08-31T10:59:39.602Z,1010.66
2023-08-31T11:00:38.726Z,1010.63
2023-08-31T11:01:39.008Z,1010.63
2023-08-31T11:02:39.107Z,1010.57
2023-08-31T11:03:39.372Z,1010.60
2023-08-31T11:04:39.489Z,1010.58
2023-08-31T11:05:39.640Z,1010.54
2023-08-31T11:06:39.847Z,1010.54
2023-08-31T11:07:40.008Z,1010.52
2023-08-31T11:08:40.187Z,1010.48
2023-08-31T11:09:40.402Z,1010.46
2023-08-31T11:10:40.556Z,1010.44
2023-08-31T11:11:40.793Z,1010.45
2023-08-31T11:12:40.907Z,1010.45
2023-08-31T11:13:41.090Z,1010.40
2023-08-31T11:14:41.302Z,1010.45
2023-08-31T11:15:41.473Z,1010.38
2023-08-31T11:16:41.655Z,1010.39
2023-08-31T11:17:41.812Z,1010.43
2023-08-31T11:18:42.006Z,1010.41
2023-08-31T11:19:42.195Z,1010.40
2023-08-31T11:20:42.362Z,1010.38
2023-08-31T11:21:42.597Z,1010.34
2023-08-31T11:22:42.807Z,1010.36
2023-08-31T11:23:42.944Z,1010.41
2023-08-31T11:24:43.112Z,1010.34
2023-08-31T11:25:43.308Z,1010.35
2023-08-31T11:26:43.500Z,1010.36
2023-08-31T11:27:43.696Z,1010.33
2023-08-31T11:28:43.885Z,1010.38
2023-08-31T11:29:44.054Z,1010.38
2023-08-31T11:30:44.226Z,1010.42
2023-08-31T11:31:44.487Z,1010.42
2023-08-31T11:32:44.639Z,1010.40
2023-08-31T11:33:44.785Z,1010.38
2023-08-31T11:34:44.983Z,1010.41
2023-08-31T11:35:45.171Z,1010.39
2023-08-31T11:36:45.361Z,1010.40
2023-08-31T11:37:45.548Z,1010.39
2023-08-31T11:38:45.706Z,1010.42
2023-08-31T11:39:45.889Z,1010.43
2023-08-31T11:40:46.077Z,1010.46
2023-08-31T11:41:46.280Z,1010.42
2023-08-31T11:42:46.420Z,1010.41
2023-08-31T11:43:46.661Z,1010.37
2023-08-31T11:44:46.791Z,1010.37
2023-08-31T11:45:47.042Z,1010.42
2023-08-31T11:46:47.160Z,1010.41
2023-08-31T11:47:47.349Z,1010.42
2023-08-31T11:48:47.557Z,1010.49
2023-08-31T11:49:47.722Z,1010.55
2023-08-31T11:50:47.941Z,1010.47
2023-08-31T11:51:50.619Z,1010.46
2023-08-31T11:52:48.309Z,1010.47
2023-08-31T11:53:48.499Z,1010.46
2023-08-31T11:54:48.687Z,1010.46
2023-08-31T11:55:48.877Z,1010.51
2023-08-31T11:56:49.074Z,1010.48
2023-08-31T11:57:49.932Z,1010.44
2023-08-31T11:59:03.993Z,1010.38
2023-08-31T11:59:50.738Z,1010.44
2023-08-31T12:00:49.891Z,1010.43
2023-08-31T12:01:50.059Z,1010.47
2023-08-31T12:02:50.236Z,1010.39
2023-08-31T12:03:51.205Z,1010.37
2023-08-31T12:04:50.641Z,1010.39
2023-08-31T12:05:50.781Z,1010.41
2023-08-31T12:06:50.919Z,1010.41
2023-08-31T12:07:51.119Z,1010.39
2023-08-31T12:08:51.319Z,1010.43
2023-08-31T12:09:51.487Z,1010.46
2023-08-31T12:10:51.675Z,1010.45